Terminal Aerodrome Forecast
Issued by NWS Shreveport, LA

Home | Current Version | Previous Version | Text Only | Print | Product List | Glossary On
Versions: 1 2 3 4 5 6 7 8 9 10 11 12
000
FTUS44 KSHV 200520
TAFELD
TAF
KELD 200520Z 2006/2106 16006KT P6SM OVC040
      TEMPO 2010/2014 OVC030
     FM201400 16007KT P6SM OVC025
      TEMPO 2014/2018 OVC015
     FM201800 16010KT P6SM OVC015
     FM210000 15007KT 5SM BR OVC008=

USA.gov is the U.S. government's official web portal to all federal, state and local government web resources and services.